Airport View

Enter AWOS ICAO identifier for current METAR.

ex. KFNL

KEAT 212255Z AUTO 08004KT 10SM CLR 23/07 A2995 RMK AO2 SLP137 T02280067

21 Sep 2019 23:27

Frequency: 119.925

Phone: 509-886-4226

Other Area AWOS: KELN - KEPH - KMWH - KSMP

TAF KEAT 211720Z 2118/2218 24005KT P6SM SKC FM212000 15006KT P6SM SKC FM220200 30008KT P6SM SCT200